sensor_id;sensor_type;location;lat;lon;timestamp;pressure;altitude;pressure_sealevel;temperature;humidity
15932;BME280;8065;49.520;11.284;2022-07-23T00:00:04;97460.66;;;22.99;81.13
15932;BME280;8065;49.520;11.284;2022-07-23T00:02:31;97443.81;;;23.18;80.70
15932;BME280;8065;49.520;11.284;2022-07-23T00:04:58;97427.06;;;23.31;80.44
15932;BME280;8065;49.520;11.284;2022-07-23T00:07:24;97419.94;;;23.40;80.98
15932;BME280;8065;49.520;11.284;2022-07-23T00:09:51;97405.13;;;23.48;80.02
15932;BME280;8065;49.520;11.284;2022-07-23T00:12:18;97405.50;;;23.16;81.01
15932;BME280;8065;49.520;11.284;2022-07-23T00:14:44;97410.22;;;23.09;80.61
15932;BME280;8065;49.520;11.284;2022-07-23T00:17:12;97417.41;;;22.85;79.93
15932;BME280;8065;49.520;11.284;2022-07-23T00:19:38;97417.56;;;22.56;82.21
15932;BME280;8065;49.520;11.284;2022-07-23T00:22:05;97406.56;;;22.85;81.77
15932;BME280;8065;49.520;11.284;2022-07-23T00:24:31;97411.47;;;22.97;81.30
15932;BME280;8065;49.520;11.284;2022-07-23T00:26:58;97397.16;;;22.97;82.16
15932;BME280;8065;49.520;11.284;2022-07-23T00:29:24;97406.28;;;22.65;83.14
15932;BME280;8065;49.520;11.284;2022-07-23T00:31:51;97391.28;;;22.53;83.94
15932;BME280;8065;49.520;11.284;2022-07-23T00:34:19;97385.78;;;22.64;83.50
15932;BME280;8065;49.520;11.284;2022-07-23T00:36:45;97377.56;;;22.75;83.05
15932;BME280;8065;49.520;11.284;2022-07-23T00:39:12;97381.94;;;22.62;83.98
15932;BME280;8065;49.520;11.284;2022-07-23T00:41:38;97379.03;;;22.38;85.32
15932;BME280;8065;49.520;11.284;2022-07-23T00:44:19;97366.72;;;22.30;85.80
15932;BME280;8065;49.520;11.284;2022-07-23T00:46:47;97371.63;;;22.49;84.46
15932;BME280;8065;49.520;11.284;2022-07-23T00:49:14;97369.28;;;22.51;84.63
15932;BME280;8065;49.520;11.284;2022-07-23T00:51:42;97370.00;;;22.55;84.47
15932;BME280;8065;49.520;11.284;2022-07-23T00:54:09;97374.94;;;22.64;83.59
15932;BME280;8065;49.520;11.284;2022-07-23T00:56:36;97353.50;;;22.39;84.66
15932;BME280;8065;49.520;11.284;2022-07-23T00:59:03;97348.88;;;22.36;85.36
15932;BME280;8065;49.520;11.284;2022-07-23T01:01:29;97350.81;;;22.36;85.08
15932;BME280;8065;49.520;11.284;2022-07-23T01:03:56;97355.00;;;22.47;84.70
15932;BME280;8065;49.520;11.284;2022-07-23T01:06:22;97358.06;;;22.49;84.32
15932;BME280;8065;49.520;11.284;2022-07-23T01:08:50;97366.25;;;22.42;84.75
15932;BME280;8065;49.520;11.284;2022-07-23T01:11:18;97365.94;;;22.33;85.35
15932;BME280;8065;49.520;11.284;2022-07-23T01:13:44;97365.28;;;22.15;86.17
15932;BME280;8065;49.520;11.284;2022-07-23T01:16:11;97357.47;;;22.24;85.90
15932;BME280;8065;49.520;11.284;2022-07-23T01:18:37;97380.06;;;21.89;88.36
15932;BME280;8065;49.520;11.284;2022-07-23T01:21:04;97376.28;;;21.72;89.43
15932;BME280;8065;49.520;11.284;2022-07-23T01:23:32;97377.38;;;21.85;88.64
15932;BME280;8065;49.520;11.284;2022-07-23T01:25:59;97368.50;;;21.85;88.95
15932;BME280;8065;49.520;11.284;2022-07-23T01:28:25;97371.91;;;22.03;88.19
15932;BME280;8065;49.520;11.284;2022-07-23T01:30:52;97369.94;;;22.11;88.05
15932;BME280;8065;49.520;11.284;2022-07-23T01:33:18;97371.97;;;21.85;89.21
15932;BME280;8065;49.520;11.284;2022-07-23T01:35:45;97375.38;;;22.04;88.60
15932;BME280;8065;49.520;11.284;2022-07-23T01:38:11;97370.03;;;21.89;89.63
15932;BME280;8065;49.520;11.284;2022-07-23T01:40:39;97361.47;;;22.05;89.04
15932;BME280;8065;49.520;11.284;2022-07-23T01:43:06;97369.91;;;22.18;88.38
15932;BME280;8065;49.520;11.284;2022-07-23T01:45:32;97354.25;;;21.77;90.67
15932;BME280;8065;49.520;11.284;2022-07-23T01:47:59;97368.81;;;22.05;89.36
15932;BME280;8065;49.520;11.284;2022-07-23T01:50:25;97374.84;;;21.57;91.98
15932;BME280;8065;49.520;11.284;2022-07-23T01:52:52;97384.03;;;21.70;92.10
15932;BME280;8065;49.520;11.284;2022-07-23T01:55:18;97387.06;;;21.83;90.60
15932;BME280;8065;49.520;11.284;2022-07-23T01:57:46;97380.84;;;21.89;90.36
15932;BME280;8065;49.520;11.284;2022-07-23T02:00:13;97384.69;;;21.96;89.93
15932;BME280;8065;49.520;11.284;2022-07-23T02:02:40;97383.13;;;22.02;89.80
15932;BME280;8065;49.520;11.284;2022-07-23T02:05:07;97398.53;;;22.12;89.25
15932;BME280;8065;49.520;11.284;2022-07-23T02:07:34;97409.03;;;22.03;89.58
15932;BME280;8065;49.520;11.284;2022-07-23T02:10:01;97406.28;;;22.10;89.07
15932;BME280;8065;49.520;11.284;2022-07-23T02:12:27;97409.34;;;22.15;89.19
15932;BME280;8065;49.520;11.284;2022-07-23T02:14:55;97425.56;;;22.22;88.79
15932;BME280;8065;49.520;11.284;2022-07-23T02:17:22;97424.38;;;22.27;88.54
15932;BME280;8065;49.520;11.284;2022-07-23T02:19:48;97414.75;;;22.19;89.37
15932;BME280;8065;49.520;11.284;2022-07-23T02:22:15;97410.97;;;21.99;90.90
15932;BME280;8065;49.520;11.284;2022-07-23T02:24:41;97410.97;;;21.99;90.89
15932;BME280;8065;49.520;11.284;2022-07-23T02:27:08;97408.28;;;21.95;90.77
15932;BME280;8065;49.520;11.284;2022-07-23T02:29:34;97395.50;;;21.96;91.24
15932;BME280;8065;49.520;11.284;2022-07-23T02:32:03;97405.56;;;21.95;90.75
15932;BME280;8065;49.520;11.284;2022-07-23T02:34:29;97405.53;;;22.06;90.40
15932;BME280;8065;49.520;11.284;2022-07-23T02:36:56;97410.28;;;21.77;92.45
15932;BME280;8065;49.520;11.284;2022-07-23T02:39:22;97408.75;;;21.72;92.90
15932;BME280;8065;49.520;11.284;2022-07-23T02:41:49;97410.34;;;21.66;93.61
15932;BME280;8065;49.520;11.284;2022-07-23T02:44:15;97413.47;;;21.54;94.03
15932;BME280;8065;49.520;11.284;2022-07-23T02:46:42;97406.56;;;21.39;94.95
15932;BME280;8065;49.520;11.284;2022-07-23T02:49:10;97406.97;;;21.26;95.89
15932;BME280;8065;49.520;11.284;2022-07-23T02:51:36;97406.56;;;21.39;94.99
15932;BME280;8065;49.520;11.284;2022-07-23T02:54:03;97409.66;;;21.34;95.33
15932;BME280;8065;49.520;11.284;2022-07-23T02:56:30;97403.50;;;21.30;95.81
15932;BME280;8065;49.520;11.284;2022-07-23T02:58:56;97399.66;;;21.23;96.05
15932;BME280;8065;49.520;11.284;2022-07-23T03:01:23;97400.00;;;21.18;96.79
15932;BME280;8065;49.520;11.284;2022-07-23T03:03:49;97407.34;;;21.18;96.37
15932;BME280;8065;49.520;11.284;2022-07-23T03:06:17;97404.66;;;21.18;96.21
15932;BME280;8065;49.520;11.284;2022-07-23T03:08:44;97391.91;;;21.18;95.85
15932;BME280;8065;49.520;11.284;2022-07-23T03:11:10;97393.47;;;21.26;95.42
15932;BME280;8065;49.520;11.284;2022-07-23T03:13:37;97392.66;;;21.40;94.62
15932;BME280;8065;49.520;11.284;2022-07-23T03:16:04;97395.75;;;21.39;94.59
15932;BME280;8065;49.520;11.284;2022-07-23T03:18:31;97393.41;;;21.44;94.74
15932;BME280;8065;49.520;11.284;2022-07-23T03:20:58;97394.94;;;21.49;93.87
15932;BME280;8065;49.520;11.284;2022-07-23T03:23:25;97388.78;;;21.41;94.55
15932;BME280;8065;49.520;11.284;2022-07-23T03:28:19;97392.69;;;21.33;94.99
15932;BME280;8065;49.520;11.284;2022-07-23T03:30:46;97401.94;;;21.14;96.29
15932;BME280;8065;49.520;11.284;2022-07-23T03:33:13;97408.91;;;21.15;96.60
15932;BME280;8065;49.520;11.284;2022-07-23T03:35:41;97392.28;;;21.20;96.48
15932;BME280;8065;49.520;11.284;2022-07-23T03:38:08;97401.97;;;21.07;97.42
15932;BME280;8065;49.520;11.284;2022-07-23T03:40:36;97400.41;;;21.13;96.89
15932;BME280;8065;49.520;11.284;2022-07-23T03:43:02;97400.81;;;21.22;96.73
15932;BME280;8065;49.520;11.284;2022-07-23T03:45:31;97397.31;;;21.25;96.56
15932;BME280;8065;49.520;11.284;2022-07-23T03:47:57;97391.13;;;21.29;96.17
15932;BME280;8065;49.520;11.284;2022-07-23T03:50:24;97394.22;;;21.31;96.46
15932;BME280;8065;49.520;11.284;2022-07-23T03:52:51;97395.00;;;21.27;96.21
15932;BME280;8065;49.520;11.284;2022-07-23T03:55:17;97400.78;;;21.19;96.70
15932;BME280;8065;49.520;11.284;2022-07-23T03:57:45;97400.41;;;21.20;96.54
15932;BME280;8065;49.520;11.284;2022-07-23T04:00:13;97403.50;;;21.05;97.17
15932;BME280;8065;49.520;11.284;2022-07-23T04:02:40;97418.94;;;21.11;96.86
15932;BME280;8065;49.520;11.284;2022-07-23T04:05:07;97412.78;;;21.00;97.36
15932;BME280;8065;49.520;11.284;2022-07-23T04:07:34;97418.16;;;21.14;96.70
15932;BME280;8065;49.520;11.284;2022-07-23T04:10:00;97419.72;;;20.87;97.81
15932;BME280;8065;49.520;11.284;2022-07-23T04:12:27;97422.81;;;21.07;97.11
15932;BME280;8065;49.520;11.284;2022-07-23T04:14:55;97413.53;;;21.18;96.45
15932;BME280;8065;49.520;11.284;2022-07-23T04:17:21;97421.63;;;21.18;96.27
15932;BME280;8065;49.520;11.284;2022-07-23T04:19:48;97410.06;;;21.21;96.00
15932;BME280;8065;49.520;11.284;2022-07-23T04:22:14;97412.00;;;21.24;95.88
15932;BME280;8065;49.520;11.284;2022-07-23T04:24:40;97416.63;;;21.27;95.69
15932;BME280;8065;49.520;11.284;2022-07-23T04:27:07;97421.66;;;21.25;95.87
15932;BME280;8065;49.520;11.284;2022-07-23T04:29:33;97424.34;;;21.33;95.26
15932;BME280;8065;49.520;11.284;2022-07-23T04:32:01;97422.78;;;21.21;95.22
15932;BME280;8065;49.520;11.284;2022-07-23T04:34:28;97423.97;;;21.16;95.76
15932;BME280;8065;49.520;11.284;2022-07-23T04:36:55;97419.72;;;21.15;95.39
15932;BME280;8065;49.520;11.284;2022-07-23T04:39:21;97422.81;;;21.14;95.20
15932;BME280;8065;49.520;11.284;2022-07-23T04:41:48;97425.50;;;21.03;95.26
15932;BME280;8065;49.520;11.284;2022-07-23T04:44:14;97430.91;;;21.14;94.62
15932;BME280;8065;49.520;11.284;2022-07-23T04:46:41;97432.06;;;21.13;94.66
15932;BME280;8065;49.520;11.284;2022-07-23T04:49:09;97434.41;;;21.29;94.13
15932;BME280;8065;49.520;11.284;2022-07-23T04:51:35;97441.31;;;21.40;94.20
15932;BME280;8065;49.520;11.284;2022-07-23T04:54:02;97440.53;;;21.47;93.45
15932;BME280;8065;49.520;11.284;2022-07-23T04:56:29;97432.03;;;21.45;93.71
15932;BME280;8065;49.520;11.284;2022-07-23T04:58:55;97431.63;;;21.57;93.45
15932;BME280;8065;49.520;11.284;2022-07-23T05:01:22;97439.78;;;21.36;94.06
15932;BME280;8065;49.520;11.284;2022-07-23T05:03:49;97431.25;;;21.48;93.93
15932;BME280;8065;49.520;11.284;2022-07-23T05:06:16;97429.69;;;21.61;93.52
15932;BME280;8065;49.520;11.284;2022-07-23T05:08:43;97428.13;;;21.60;93.35
15932;BME280;8065;49.520;11.284;2022-07-23T05:11:09;97428.88;;;21.68;93.51
15932;BME280;8065;49.520;11.284;2022-07-23T05:13:36;97425.03;;;21.65;93.85
15932;BME280;8065;49.520;11.284;2022-07-23T05:16:03;97428.47;;;21.69;93.77
15932;BME280;8065;49.520;11.284;2022-07-23T05:18:29;97430.38;;;21.79;93.14
15932;BME280;8065;49.520;11.284;2022-07-23T05:20:56;97421.84;;;21.84;92.70
15932;BME280;8065;49.520;11.284;2022-07-23T05:23:24;97428.78;;;21.92;92.23
15932;BME280;8065;49.520;11.284;2022-07-23T05:25:50;97422.56;;;22.03;91.67
15932;BME280;8065;49.520;11.284;2022-07-23T05:28:17;97430.66;;;22.10;91.26
15932;BME280;8065;49.520;11.284;2022-07-23T05:30:43;97432.53;;;22.20;90.62
15932;BME280;8065;49.520;11.284;2022-07-23T05:33:10;97434.00;;;22.32;90.20
15932;BME280;8065;49.520;11.284;2022-07-23T05:35:36;97446.38;;;22.36;85.96
15932;BME280;8065;49.520;11.284;2022-07-23T05:38:03;97443.19;;;22.52;85.65
15932;BME280;8065;49.520;11.284;2022-07-23T05:40:31;97451.94;;;22.67;84.17
15932;BME280;8065;49.520;11.284;2022-07-23T05:42:58;97449.94;;;22.78;83.05
15932;BME280;8065;49.520;11.284;2022-07-23T05:45:24;97451.47;;;22.86;80.51
15932;BME280;8065;49.520;11.284;2022-07-23T05:47:51;97445.97;;;22.93;79.89
15932;BME280;8065;49.520;11.284;2022-07-23T05:50:17;97448.97;;;23.06;80.14
15932;BME280;8065;49.520;11.284;2022-07-23T05:52:44;97443.50;;;23.13;79.46
15932;BME280;8065;49.520;11.284;2022-07-23T05:55:11;97451.97;;;23.18;79.26
15932;BME280;8065;49.520;11.284;2022-07-23T05:57:40;97453.41;;;23.30;78.87
15932;BME280;8065;49.520;11.284;2022-07-23T06:00:08;97463.34;;;23.40;78.53
15932;BME280;8065;49.520;11.284;2022-07-23T06:02:35;97464.41;;;23.50;78.28
15932;BME280;8065;49.520;11.284;2022-07-23T06:05:03;97458.59;;;23.55;77.40
15932;BME280;8065;49.520;11.284;2022-07-23T06:07:30;97464.31;;;23.64;77.34
15932;BME280;8065;49.520;11.284;2022-07-23T06:09:56;97472.38;;;23.71;76.61
15932;BME280;8065;49.520;11.284;2022-07-23T06:12:23;97476.91;;;23.81;76.53
15932;BME280;8065;49.520;11.284;2022-07-23T06:14:52;97473.31;;;23.92;76.43
15932;BME280;8065;49.520;11.284;2022-07-23T06:17:18;97484.84;;;23.99;76.64
15932;BME280;8065;49.520;11.284;2022-07-23T06:19:45;97479.00;;;24.01;75.52
15932;BME280;8065;49.520;11.284;2022-07-23T06:22:11;97484.00;;;24.06;75.90
15932;BME280;8065;49.520;11.284;2022-07-23T06:24:38;97491.28;;;24.12;75.68
15932;BME280;8065;49.520;11.284;2022-07-23T06:27:05;97499.00;;;24.17;75.39
15932;BME280;8065;49.520;11.284;2022-07-23T06:29:31;97485.72;;;24.23;75.34
15932;BME280;8065;49.520;11.284;2022-07-23T06:31:59;97477.84;;;24.32;75.21
15932;BME280;8065;49.520;11.284;2022-07-23T06:34:26;97483.91;;;24.43;74.77
15932;BME280;8065;49.520;11.284;2022-07-23T06:36:52;97484.53;;;24.55;74.70
15932;BME280;8065;49.520;11.284;2022-07-23T06:39:19;97489.88;;;24.62;73.40
15932;BME280;8065;49.520;11.284;2022-07-23T06:41:45;97487.41;;;24.71;73.51
15932;BME280;8065;49.520;11.284;2022-07-23T06:44:12;97486.84;;;24.83;73.21
15932;BME280;8065;49.520;11.284;2022-07-23T06:46:38;97494.13;;;24.90;71.42
15932;BME280;8065;49.520;11.284;2022-07-23T06:49:06;97484.66;;;25.01;71.95
15932;BME280;8065;49.520;11.284;2022-07-23T06:51:33;97485.56;;;25.14;71.59
15932;BME280;8065;49.520;11.284;2022-07-23T06:53:59;97493.50;;;25.29;71.16
15932;BME280;8065;49.520;11.284;2022-07-23T06:56:26;97498.00;;;25.39;71.28
15932;BME280;8065;49.520;11.284;2022-07-23T06:58:53;97509.88;;;25.48;70.46
15932;BME280;8065;49.520;11.284;2022-07-23T07:01:19;97504.59;;;25.61;70.32
15932;BME280;8065;49.520;11.284;2022-07-23T07:03:46;97516.44;;;25.74;70.03
15932;BME280;8065;49.520;11.284;2022-07-23T07:06:14;97508.06;;;25.85;68.71
15932;BME280;8065;49.520;11.284;2022-07-23T07:08:41;97507.16;;;25.92;68.20
15932;BME280;8065;49.520;11.284;2022-07-23T07:11:08;97499.94;;;26.01;67.37
15932;BME280;8065;49.520;11.284;2022-07-23T07:13:35;97509.09;;;26.11;67.00
15932;BME280;8065;49.520;11.284;2022-07-23T07:16:02;97515.81;;;26.26;67.51
15932;BME280;8065;49.520;11.284;2022-07-23T07:18:28;97514.69;;;26.43;66.66
15932;BME280;8065;49.520;11.284;2022-07-23T07:20:55;97516.78;;;26.56;66.60
15932;BME280;8065;49.520;11.284;2022-07-23T07:23:24;97510.25;;;26.69;65.76
15932;BME280;8065;49.520;11.284;2022-07-23T07:25:50;97520.47;;;26.65;65.57
15932;BME280;8065;49.520;11.284;2022-07-23T07:28:17;97523.44;;;26.71;65.94
15932;BME280;8065;49.520;11.284;2022-07-23T07:30:44;97524.47;;;26.77;65.89
15932;BME280;8065;49.520;11.284;2022-07-23T07:33:11;97522.03;;;26.83;65.65
15932;BME280;8065;49.520;11.284;2022-07-23T07:35:37;97532.50;;;26.84;65.43
15932;BME280;8065;49.520;11.284;2022-07-23T07:38:04;97537.84;;;26.88;65.32
15932;BME280;8065;49.520;11.284;2022-07-23T07:40:31;97542.88;;;26.89;65.28
15932;BME280;8065;49.520;11.284;2022-07-23T07:42:58;97536.59;;;26.92;65.41
15932;BME280;8065;49.520;11.284;2022-07-23T07:45:25;97548.91;;;27.00;65.55
15932;BME280;8065;49.520;11.284;2022-07-23T07:47:55;97537.97;;;27.00;65.32
15932;BME280;8065;49.520;11.284;2022-07-23T07:50:24;97542.94;;;27.05;65.28
15932;BME280;8065;49.520;11.284;2022-07-23T07:52:51;97550.59;;;27.10;65.39
15932;BME280;8065;49.520;11.284;2022-07-23T07:55:18;97542.78;;;27.13;64.70
15932;BME280;8065;49.520;11.284;2022-07-23T07:57:45;97557.53;;;27.31;64.37
15932;BME280;8065;49.520;11.284;2022-07-23T08:00:12;97552.91;;;27.28;64.71
15932;BME280;8065;49.520;11.284;2022-07-23T08:02:41;97568.19;;;27.26;64.33
15932;BME280;8065;49.520;11.284;2022-07-23T08:05:08;97573.47;;;27.33;64.66
15932;BME280;8065;49.520;11.284;2022-07-23T08:07:35;97579.78;;;27.30;63.65
15932;BME280;8065;49.520;11.284;2022-07-23T08:10:03;97579.78;;;27.30;63.48
15932;BME280;8065;49.520;11.284;2022-07-23T08:12:37;97594.44;;;27.20;62.80
15932;BME280;8065;49.520;11.284;2022-07-23T08:15:07;97608.41;;;27.05;65.76
15932;BME280;8065;49.520;11.284;2022-07-23T08:17:34;97598.88;;;26.77;69.48
15932;BME280;8065;49.520;11.284;2022-07-23T08:20:00;97599.94;;;26.64;70.13
15932;BME280;8065;49.520;11.284;2022-07-23T08:22:41;97601.16;;;26.43;71.49
15932;BME280;8065;49.520;11.284;2022-07-23T08:25:08;97599.25;;;26.40;72.23
15932;BME280;8065;49.520;11.284;2022-07-23T08:27:35;97610.81;;;26.24;73.77
15932;BME280;8065;49.520;11.284;2022-07-23T08:30:01;97612.56;;;26.14;74.61
15932;BME280;8065;49.520;11.284;2022-07-23T08:32:29;97607.88;;;26.15;76.00
15932;BME280;8065;49.520;11.284;2022-07-23T08:34:56;97607.81;;;25.99;78.34
15932;BME280;8065;49.520;11.284;2022-07-23T08:37:22;97616.94;;;25.89;78.07
15932;BME280;8065;49.520;11.284;2022-07-23T08:39:49;97619.72;;;25.85;78.18
15932;BME280;8065;49.520;11.284;2022-07-23T08:42:15;97607.72;;;25.83;78.42
15932;BME280;8065;49.520;11.284;2022-07-23T08:44:44;97610.19;;;25.73;78.42
15932;BME280;8065;49.520;11.284;2022-07-23T08:47:11;97610.19;;;25.73;77.39
15932;BME280;8065;49.520;11.284;2022-07-23T08:49:39;97605.53;;;25.74;77.99
15932;BME280;8065;49.520;11.284;2022-07-23T08:52:07;97610.19;;;25.73;77.92
15932;BME280;8065;49.520;11.284;2022-07-23T08:54:34;97615.50;;;25.57;77.45
15932;BME280;8065;49.520;11.284;2022-07-23T08:57:00;97616.31;;;25.54;77.66
15932;BME280;8065;49.520;11.284;2022-07-23T08:59:28;97638.66;;;25.42;76.71
15932;BME280;8065;49.520;11.284;2022-07-23T09:01:55;97648.78;;;25.41;76.64
15932;BME280;8065;49.520;11.284;2022-07-23T09:04:21;97636.50;;;25.30;77.38
15932;BME280;8065;49.520;11.284;2022-07-23T09:06:49;97631.47;;;25.28;77.71
15932;BME280;8065;49.520;11.284;2022-07-23T09:09:17;97643.00;;;25.12;79.84
15932;BME280;8065;49.520;11.284;2022-07-23T09:11:46;97642.38;;;25.01;80.40
15932;BME280;8065;49.520;11.284;2022-07-23T09:14:12;97650.25;;;24.92;80.66
15932;BME280;8065;49.520;11.284;2022-07-23T09:16:39;97648.00;;;24.83;80.69
15932;BME280;8065;49.520;11.284;2022-07-23T09:19:07;97660.19;;;24.72;80.78
15932;BME280;8065;49.520;11.284;2022-07-23T09:21:34;97668.03;;;24.66;81.39
15932;BME280;8065;49.520;11.284;2022-07-23T09:24:04;97679.00;;;24.56;82.18
15932;BME280;8065;49.520;11.284;2022-07-23T09:26:33;97684.84;;;24.54;82.56
15932;BME280;8065;49.520;11.284;2022-07-23T09:29:03;97699.72;;;24.42;84.23
15932;BME280;8065;49.520;11.284;2022-07-23T09:31:41;97701.00;;;24.31;84.13
15932;BME280;8065;49.520;11.284;2022-07-23T09:34:11;97714.19;;;24.32;84.41
15932;BME280;8065;49.520;11.284;2022-07-23T09:36:38;97722.84;;;24.20;84.87
15932;BME280;8065;49.520;11.284;2022-07-23T09:39:07;97706.97;;;24.15;84.81
15932;BME280;8065;49.520;11.284;2022-07-23T09:41:36;97709.00;;;24.04;86.69
15932;BME280;8065;49.520;11.284;2022-07-23T09:44:14;97707.88;;;23.98;87.02
15932;BME280;8065;49.520;11.284;2022-07-23T09:46:42;97702.94;;;23.85;87.36
15932;BME280;8065;49.520;11.284;2022-07-23T09:49:12;97693.41;;;23.63;87.49
15932;BME280;8065;49.520;11.284;2022-07-23T09:51:50;97699.69;;;23.46;88.61
15932;BME280;8065;49.520;11.284;2022-07-23T09:54:37;97708.19;;;23.51;87.21
15932;BME280;8065;49.520;11.284;2022-07-23T09:57:06;97706.75;;;23.36;87.81
15932;BME280;8065;49.520;11.284;2022-07-23T09:59:35;97703.69;;;23.31;88.29
15932;BME280;8065;49.520;11.284;2022-07-23T10:02:04;97698.31;;;23.20;88.34
15932;BME280;8065;49.520;11.284;2022-07-23T10:04:32;97699.16;;;23.06;89.06
15932;BME280;8065;49.520;11.284;2022-07-23T10:07:01;97697.28;;;22.96;88.66
15932;BME280;8065;49.520;11.284;2022-07-23T10:09:29;97700.75;;;22.93;87.92
15932;BME280;8065;49.520;11.284;2022-07-23T10:11:59;97706.59;;;22.84;87.89
15932;BME280;8065;49.520;11.284;2022-07-23T10:14:46;97718.63;;;22.69;88.73
15932;BME280;8065;49.520;11.284;2022-07-23T10:17:13;97717.88;;;22.62;89.65
15932;BME280;8065;49.520;11.284;2022-07-23T10:19:40;97719.81;;;22.61;90.00
15932;BME280;8065;49.520;11.284;2022-07-23T10:22:09;97711.69;;;22.57;91.24
15932;BME280;8065;49.520;11.284;2022-07-23T10:24:57;97707.41;;;22.64;91.66
15932;BME280;8065;49.520;11.284;2022-07-23T10:27:40;97691.63;;;22.44;96.35
15932;BME280;8065;49.520;11.284;2022-07-23T10:30:13;97708.59;;;22.55;94.15
15932;BME280;8065;49.520;11.284;2022-07-23T10:32:49;97705.94;;;22.52;93.52
15932;BME280;8065;49.520;11.284;2022-07-23T10:35:26;97705.09;;;22.58;92.52
15932;BME280;8065;49.520;11.284;2022-07-23T10:38:00;97706.69;;;22.52;93.46
15932;BME280;8065;49.520;11.284;2022-07-23T10:40:30;97706.66;;;22.60;93.63
15932;BME280;8065;49.520;11.284;2022-07-23T10:43:00;97704.69;;;22.64;93.17
15932;BME280;8065;49.520;11.284;2022-07-23T10:45:29;97698.91;;;22.65;92.79
15932;BME280;8065;49.520;11.284;2022-07-23T10:48:15;97671.13;;;22.43;97.81
15932;BME280;8065;49.520;11.284;2022-07-23T10:50:42;97662.28;;;22.11;99.78
15932;BME280;8065;49.520;11.284;2022-07-23T10:53:12;97666.13;;;22.24;99.36
15932;BME280;8065;49.520;11.284;2022-07-23T10:55:47;97662.66;;;22.20;99.73
15932;BME280;8065;49.520;11.284;2022-07-23T10:58:20;97663.44;;;22.10;99.31
15932;BME280;8065;49.520;11.284;2022-07-23T11:00:47;97664.56;;;22.30;98.24
15932;BME280;8065;49.520;11.284;2022-07-23T11:03:34;97659.91;;;22.34;98.06
15932;BME280;8065;49.520;11.284;2022-07-23T11:06:03;97673.88;;;22.22;97.16
15932;BME280;8065;49.520;11.284;2022-07-23T11:08:30;97668.44;;;22.29;97.00
15932;BME280;8065;49.520;11.284;2022-07-23T11:11:09;97681.97;;;22.26;98.09
15932;BME280;8065;49.520;11.284;2022-07-23T11:13:39;97678.47;;;22.36;97.72
15932;BME280;8065;49.520;11.284;2022-07-23T11:16:17;97680.47;;;22.07;97.14
15932;BME280;8065;49.520;11.284;2022-07-23T11:19:06;97672.31;;;22.24;98.02
15932;BME280;8065;49.520;11.284;2022-07-23T11:21:47;97670.00;;;22.23;99.35
15932;BME280;8065;49.520;11.284;2022-07-23T11:24:19;97678.88;;;22.27;99.90
15932;BME280;8065;49.520;11.284;2022-07-23T11:27:02;97682.34;;;22.42;99.11
15932;BME280;8065;49.520;11.284;2022-07-23T11:29:46;97684.97;;;22.60;98.85
15932;BME280;8065;49.520;11.284;2022-07-23T11:32:36;97678.34;;;22.71;96.08
15932;BME280;8065;49.520;11.284;2022-07-23T11:35:22;97672.19;;;22.64;95.29
15932;BME280;8065;49.520;11.284;2022-07-23T11:37:51;97667.53;;;22.71;94.76
15932;BME280;8065;49.520;11.284;2022-07-23T11:40:23;97666.72;;;22.85;93.68
15932;BME280;8065;49.520;11.284;2022-07-23T11:42:56;97671.31;;;22.95;93.25
15932;BME280;8065;49.520;11.284;2022-07-23T11:45:25;97656.53;;;23.10;93.31
15932;BME280;8065;49.520;11.284;2022-07-23T11:47:52;97660.41;;;23.13;92.12
15932;BME280;8065;49.520;11.284;2022-07-23T11:50:24;97663.16;;;23.02;90.57
15932;BME280;8065;49.520;11.284;2022-07-23T11:52:51;97659.66;;;23.05;90.71
15932;BME280;8065;49.520;11.284;2022-07-23T11:55:18;97644.16;;;23.09;90.96
15932;BME280;8065;49.520;11.284;2022-07-23T11:57:45;97632.47;;;23.19;91.21
15932;BME280;8065;49.520;11.284;2022-07-23T12:00:14;97629.28;;;23.32;90.97
15932;BME280;8065;49.520;11.284;2022-07-23T12:02:43;97639.28;;;23.42;89.77
15932;BME280;8065;49.520;11.284;2022-07-23T12:05:14;97649.41;;;23.38;89.94
15932;BME280;8065;49.520;11.284;2022-07-23T12:07:42;97642.72;;;23.46;90.49
15932;BME280;8065;49.520;11.284;2022-07-23T12:10:15;97639.56;;;23.58;89.92
15932;BME280;8065;49.520;11.284;2022-07-23T12:12:44;97637.91;;;23.71;90.06
15932;BME280;8065;49.520;11.284;2022-07-23T12:15:12;97631.25;;;23.79;89.41
15932;BME280;8065;49.520;11.284;2022-07-23T12:17:41;97636.56;;;23.94;88.89
15932;BME280;8065;49.520;11.284;2022-07-23T12:20:11;97624.47;;;24.02;88.00
15932;BME280;8065;49.520;11.284;2022-07-23T12:22:40;97621.56;;;24.19;87.43
15932;BME280;8065;49.520;11.284;2022-07-23T12:25:09;97622.91;;;24.38;87.49
15932;BME280;8065;49.520;11.284;2022-07-23T12:27:36;97612.69;;;24.49;87.36
15932;BME280;8065;49.520;11.284;2022-07-23T12:30:20;97610.91;;;24.70;86.36
15932;BME280;8065;49.520;11.284;2022-07-23T12:32:50;97617.69;;;24.85;85.87
15932;BME280;8065;49.520;11.284;2022-07-23T12:35:17;97609.75;;;25.01;85.83
15932;BME280;8065;49.520;11.284;2022-07-23T12:37:46;97611.66;;;25.28;86.67
15932;BME280;8065;49.520;11.284;2022-07-23T12:40:22;97608.16;;;25.54;86.62
15932;BME280;8065;49.520;11.284;2022-07-23T12:42:53;97602.84;;;25.70;84.01
15932;BME280;8065;49.520;11.284;2022-07-23T12:45:20;97606.75;;;25.69;82.73
15932;BME280;8065;49.520;11.284;2022-07-23T12:48:05;97603.88;;;25.80;81.08
15932;BME280;8065;49.520;11.284;2022-07-23T12:50:43;97602.00;;;25.97;81.23
15932;BME280;8065;49.520;11.284;2022-07-23T12:53:15;97606.41;;;26.10;78.15
15932;BME280;8065;49.520;11.284;2022-07-23T12:55:43;97610.59;;;26.15;78.02
15932;BME280;8065;49.520;11.284;2022-07-23T12:58:14;97606.06;;;26.28;77.40
15932;BME280;8065;49.520;11.284;2022-07-23T13:00:58;97608.22;;;26.40;78.28
15932;BME280;8065;49.520;11.284;2022-07-23T13:03:29;97606.38;;;26.54;77.59
15932;BME280;8065;49.520;11.284;2022-07-23T13:05:57;97601.19;;;26.79;78.72
15932;BME280;8065;49.520;11.284;2022-07-23T13:08:24;97599.63;;;26.98;77.50